sensor_id;sensor_type;location;lat;lon;timestamp;temperature;humidity
995;DHT22;486;48.726;8.964;2022-09-09T00:02:14;15.20;99.90
995;DHT22;486;48.726;8.964;2022-09-09T00:04:55;15.20;99.90
995;DHT22;486;48.726;8.964;2022-09-09T00:07:40;15.20;99.90
995;DHT22;486;48.726;8.964;2022-09-09T00:10:17;15.10;99.90
995;DHT22;486;48.726;8.964;2022-09-09T00:12:54;15.10;99.90
995;DHT22;486;48.726;8.964;2022-09-09T00:15:35;15.00;99.90
995;DHT22;486;48.726;8.964;2022-09-09T00:18:15;14.90;99.90
995;DHT22;486;48.726;8.964;2022-09-09T00:20:53;14.90;99.90
995;DHT22;486;48.726;8.964;2022-09-09T00:23:34;15.00;99.90
995;DHT22;486;48.726;8.964;2022-09-09T00:26:09;15.10;99.90
995;DHT22;486;48.726;8.964;2022-09-09T00:28:48;15.10;99.90
995;DHT22;486;48.726;8.964;2022-09-09T00:31:23;15.10;99.90
995;DHT22;486;48.726;8.964;2022-09-09T00:34:03;15.10;99.90
995;DHT22;486;48.726;8.964;2022-09-09T00:36:37;15.20;99.90
995;DHT22;486;48.726;8.964;2022-09-09T00:39:25;15.20;99.90
995;DHT22;486;48.726;8.964;2022-09-09T00:42:10;15.30;99.90
995;DHT22;486;48.726;8.964;2022-09-09T00:44:56;15.30;99.90
995;DHT22;486;48.726;8.964;2022-09-09T00:47:40;15.40;99.90
995;DHT22;486;48.726;8.964;2022-09-09T00:50:22;15.30;99.90
995;DHT22;486;48.726;8.964;2022-09-09T00:53:06;15.40;99.90
995;DHT22;486;48.726;8.964;2022-09-09T00:55:49;15.40;99.90
995;DHT22;486;48.726;8.964;2022-09-09T00:58:22;15.40;99.90
995;DHT22;486;48.726;8.964;2022-09-09T01:00:58;15.50;99.90
995;DHT22;486;48.726;8.964;2022-09-09T01:03:34;15.50;99.90
995;DHT22;486;48.726;8.964;2022-09-09T01:06:13;15.60;99.90
995;DHT22;486;48.726;8.964;2022-09-09T01:09:04;15.60;99.90
995;DHT22;486;48.726;8.964;2022-09-09T01:11:52;15.60;99.90
995;DHT22;486;48.726;8.964;2022-09-09T01:14:40;15.60;99.90
995;DHT22;486;48.726;8.964;2022-09-09T01:17:17;15.50;99.90
995;DHT22;486;48.726;8.964;2022-09-09T01:20:02;15.50;99.90
995;DHT22;486;48.726;8.964;2022-09-09T01:22:47;15.40;99.90
995;DHT22;486;48.726;8.964;2022-09-09T01:25:56;15.40;99.90
995;DHT22;486;48.726;8.964;2022-09-09T01:28:45;15.40;99.90
995;DHT22;486;48.726;8.964;2022-09-09T01:31:21;15.40;99.90
995;DHT22;486;48.726;8.964;2022-09-09T01:33:52;15.30;99.90
995;DHT22;486;48.726;8.964;2022-09-09T01:36:29;15.30;99.90
995;DHT22;486;48.726;8.964;2022-09-09T01:39:03;15.20;99.90
995;DHT22;486;48.726;8.964;2022-09-09T01:41:35;15.10;99.90
995;DHT22;486;48.726;8.964;2022-09-09T01:44:10;15.00;99.90
995;DHT22;486;48.726;8.964;2022-09-09T01:46:43;14.90;99.90
995;DHT22;486;48.726;8.964;2022-09-09T01:49:16;14.80;99.90
995;DHT22;486;48.726;8.964;2022-09-09T01:51:49;14.80;99.90
995;DHT22;486;48.726;8.964;2022-09-09T01:54:26;14.70;99.90
995;DHT22;486;48.726;8.964;2022-09-09T01:57:15;14.80;99.90
995;DHT22;486;48.726;8.964;2022-09-09T02:00:00;14.80;99.90
995;DHT22;486;48.726;8.964;2022-09-09T02:02:46;14.70;99.90
995;DHT22;486;48.726;8.964;2022-09-09T02:05:34;14.70;99.90
995;DHT22;486;48.726;8.964;2022-09-09T02:08:17;14.70;99.90
995;DHT22;486;48.726;8.964;2022-09-09T02:10:59;14.70;99.90
995;DHT22;486;48.726;8.964;2022-09-09T02:13:42;14.70;99.90
995;DHT22;486;48.726;8.964;2022-09-09T02:16:18;14.70;99.90
995;DHT22;486;48.726;8.964;2022-09-09T02:18:51;14.80;99.90
995;DHT22;486;48.726;8.964;2022-09-09T02:21:33;14.80;99.90
995;DHT22;486;48.726;8.964;2022-09-09T02:24:06;14.90;99.90
995;DHT22;486;48.726;8.964;2022-09-09T02:26:43;14.80;99.90
995;DHT22;486;48.726;8.964;2022-09-09T02:29:24;14.80;99.90
995;DHT22;486;48.726;8.964;2022-09-09T02:32:00;14.70;99.90
995;DHT22;486;48.726;8.964;2022-09-09T02:34:37;14.60;99.90
995;DHT22;486;48.726;8.964;2022-09-09T02:37:09;14.60;99.90
995;DHT22;486;48.726;8.964;2022-09-09T02:39:44;14.60;99.90
995;DHT22;486;48.726;8.964;2022-09-09T02:42:16;14.60;99.90
995;DHT22;486;48.726;8.964;2022-09-09T02:44:48;14.60;99.90
995;DHT22;486;48.726;8.964;2022-09-09T02:47:25;14.60;99.90
995;DHT22;486;48.726;8.964;2022-09-09T02:50:08;14.60;99.90
995;DHT22;486;48.726;8.964;2022-09-09T02:52:51;14.50;99.90
995;DHT22;486;48.726;8.964;2022-09-09T02:55:32;14.50;99.90
995;DHT22;486;48.726;8.964;2022-09-09T02:58:12;14.50;99.90
995;DHT22;486;48.726;8.964;2022-09-09T03:00:48;14.40;99.90
995;DHT22;486;48.726;8.964;2022-09-09T03:03:19;14.40;99.90
995;DHT22;486;48.726;8.964;2022-09-09T03:05:50;14.30;99.90
995;DHT22;486;48.726;8.964;2022-09-09T03:08:19;14.20;99.90
995;DHT22;486;48.726;8.964;2022-09-09T03:10:49;14.20;99.90
995;DHT22;486;48.726;8.964;2022-09-09T03:13:20;14.20;99.90
995;DHT22;486;48.726;8.964;2022-09-09T03:15:52;14.20;99.90
995;DHT22;486;48.726;8.964;2022-09-09T03:18:21;14.20;99.90
995;DHT22;486;48.726;8.964;2022-09-09T03:20:53;14.30;99.90
995;DHT22;486;48.726;8.964;2022-09-09T03:23:24;14.30;99.90
995;DHT22;486;48.726;8.964;2022-09-09T03:25:53;14.20;99.90
995;DHT22;486;48.726;8.964;2022-09-09T03:28:32;14.20;99.90
995;DHT22;486;48.726;8.964;2022-09-09T03:31:05;14.20;99.90
995;DHT22;486;48.726;8.964;2022-09-09T03:33:39;14.10;99.90
995;DHT22;486;48.726;8.964;2022-09-09T03:36:12;14.10;99.90
995;DHT22;486;48.726;8.964;2022-09-09T03:38:42;14.10;99.90
995;DHT22;486;48.726;8.964;2022-09-09T03:41:12;14.10;99.90
995;DHT22;486;48.726;8.964;2022-09-09T03:43:42;14.00;99.90
995;DHT22;486;48.726;8.964;2022-09-09T03:46:13;14.00;99.90
995;DHT22;486;48.726;8.964;2022-09-09T03:48:42;14.00;99.90
995;DHT22;486;48.726;8.964;2022-09-09T03:51:11;13.90;99.90
995;DHT22;486;48.726;8.964;2022-09-09T03:53:41;13.90;99.90
995;DHT22;486;48.726;8.964;2022-09-09T03:56:11;13.90;99.90
995;DHT22;486;48.726;8.964;2022-09-09T03:58:41;13.90;99.90
995;DHT22;486;48.726;8.964;2022-09-09T04:01:14;13.90;99.90
995;DHT22;486;48.726;8.964;2022-09-09T04:03:44;13.90;99.90
995;DHT22;486;48.726;8.964;2022-09-09T04:06:14;13.90;99.90
995;DHT22;486;48.726;8.964;2022-09-09T04:08:45;13.90;99.90
995;DHT22;486;48.726;8.964;2022-09-09T04:11:16;13.90;99.90
995;DHT22;486;48.726;8.964;2022-09-09T04:13:47;13.90;99.90
995;DHT22;486;48.726;8.964;2022-09-09T04:16:20;13.90;99.90
995;DHT22;486;48.726;8.964;2022-09-09T04:18:50;14.00;99.90
995;DHT22;486;48.726;8.964;2022-09-09T04:21:19;14.00;99.90
995;DHT22;486;48.726;8.964;2022-09-09T04:23:49;14.10;99.90
995;DHT22;486;48.726;8.964;2022-09-09T04:26:18;14.00;99.90
995;DHT22;486;48.726;8.964;2022-09-09T04:28:48;14.10;99.90
995;DHT22;486;48.726;8.964;2022-09-09T04:31:22;14.10;99.90
995;DHT22;486;48.726;8.964;2022-09-09T04:33:55;14.10;99.90
995;DHT22;486;48.726;8.964;2022-09-09T04:36:25;14.20;99.90
995;DHT22;486;48.726;8.964;2022-09-09T04:38:59;14.20;99.90
995;DHT22;486;48.726;8.964;2022-09-09T04:41:28;14.10;99.90
995;DHT22;486;48.726;8.964;2022-09-09T04:43:58;14.20;99.90
995;DHT22;486;48.726;8.964;2022-09-09T04:46:30;14.20;99.90
995;DHT22;486;48.726;8.964;2022-09-09T04:49:00;14.20;99.90
995;DHT22;486;48.726;8.964;2022-09-09T04:51:31;14.20;99.90
995;DHT22;486;48.726;8.964;2022-09-09T04:54:00;14.20;99.90
995;DHT22;486;48.726;8.964;2022-09-09T04:56:43;14.20;99.90
995;DHT22;486;48.726;8.964;2022-09-09T04:59:12;14.20;99.90
995;DHT22;486;48.726;8.964;2022-09-09T05:01:48;14.20;99.90
995;DHT22;486;48.726;8.964;2022-09-09T05:04:17;14.20;99.90
995;DHT22;486;48.726;8.964;2022-09-09T05:06:46;14.30;99.90
995;DHT22;486;48.726;8.964;2022-09-09T05:09:16;14.40;99.90
995;DHT22;486;48.726;8.964;2022-09-09T05:11:46;14.40;99.90
995;DHT22;486;48.726;8.964;2022-09-09T05:14:22;14.50;99.90
995;DHT22;486;48.726;8.964;2022-09-09T05:16:54;14.50;99.90
995;DHT22;486;48.726;8.964;2022-09-09T05:19:24;14.60;99.90
995;DHT22;486;48.726;8.964;2022-09-09T05:21:53;14.60;99.90
995;DHT22;486;48.726;8.964;2022-09-09T05:24:32;14.70;99.90
995;DHT22;486;48.726;8.964;2022-09-09T05:27:03;14.70;99.90
995;DHT22;486;48.726;8.964;2022-09-09T05:29:32;14.80;99.90
995;DHT22;486;48.726;8.964;2022-09-09T05:32:06;14.80;99.90
995;DHT22;486;48.726;8.964;2022-09-09T05:34:36;14.90;99.90
995;DHT22;486;48.726;8.964;2022-09-09T05:37:05;15.00;99.90
995;DHT22;486;48.726;8.964;2022-09-09T05:39:36;15.00;99.90
995;DHT22;486;48.726;8.964;2022-09-09T05:42:06;15.00;99.90
995;DHT22;486;48.726;8.964;2022-09-09T05:44:35;15.10;99.90
995;DHT22;486;48.726;8.964;2022-09-09T05:47:07;15.20;99.90
995;DHT22;486;48.726;8.964;2022-09-09T05:49:36;15.20;99.90
995;DHT22;486;48.726;8.964;2022-09-09T05:52:05;15.20;99.90
995;DHT22;486;48.726;8.964;2022-09-09T05:54:35;15.30;99.90
995;DHT22;486;48.726;8.964;2022-09-09T05:57:08;15.30;99.90
995;DHT22;486;48.726;8.964;2022-09-09T05:59:37;15.30;99.90
995;DHT22;486;48.726;8.964;2022-09-09T06:02:10;15.30;99.90
995;DHT22;486;48.726;8.964;2022-09-09T06:04:39;15.30;99.90
995;DHT22;486;48.726;8.964;2022-09-09T06:07:08;15.30;99.90
995;DHT22;486;48.726;8.964;2022-09-09T06:09:37;15.40;99.90
995;DHT22;486;48.726;8.964;2022-09-09T06:12:07;15.40;99.90
995;DHT22;486;48.726;8.964;2022-09-09T06:14:37;15.40;99.90
995;DHT22;486;48.726;8.964;2022-09-09T06:17:09;15.50;99.90
995;DHT22;486;48.726;8.964;2022-09-09T06:19:38;15.50;99.90
995;DHT22;486;48.726;8.964;2022-09-09T06:22:07;15.50;99.90
995;DHT22;486;48.726;8.964;2022-09-09T06:24:38;15.60;99.90
995;DHT22;486;48.726;8.964;2022-09-09T06:27:07;15.60;99.90
995;DHT22;486;48.726;8.964;2022-09-09T06:29:36;15.70;99.90
995;DHT22;486;48.726;8.964;2022-09-09T06:32:05;15.80;99.90
995;DHT22;486;48.726;8.964;2022-09-09T06:34:37;15.80;99.90
995;DHT22;486;48.726;8.964;2022-09-09T06:37:06;15.90;99.90
995;DHT22;486;48.726;8.964;2022-09-09T06:39:41;16.00;99.90
995;DHT22;486;48.726;8.964;2022-09-09T06:42:10;16.00;99.90
995;DHT22;486;48.726;8.964;2022-09-09T06:44:50;16.10;99.90
995;DHT22;486;48.726;8.964;2022-09-09T06:47:29;16.20;99.90
995;DHT22;486;48.726;8.964;2022-09-09T06:49:59;16.20;99.90
995;DHT22;486;48.726;8.964;2022-09-09T06:52:29;16.30;99.90
995;DHT22;486;48.726;8.964;2022-09-09T06:55:00;16.40;99.90
995;DHT22;486;48.726;8.964;2022-09-09T06:57:30;16.40;99.90
995;DHT22;486;48.726;8.964;2022-09-09T07:00:00;16.30;99.90
995;DHT22;486;48.726;8.964;2022-09-09T07:02:33;16.20;99.90
995;DHT22;486;48.726;8.964;2022-09-09T07:05:06;16.20;99.90
995;DHT22;486;48.726;8.964;2022-09-09T07:07:37;16.30;99.90
995;DHT22;486;48.726;8.964;2022-09-09T07:10:08;16.40;99.90
995;DHT22;486;48.726;8.964;2022-09-09T07:12:37;16.70;99.90
995;DHT22;486;48.726;8.964;2022-09-09T07:15:10;16.90;99.90
995;DHT22;486;48.726;8.964;2022-09-09T07:17:45;17.20;99.90
995;DHT22;486;48.726;8.964;2022-09-09T07:20:14;17.60;99.90
995;DHT22;486;48.726;8.964;2022-09-09T07:22:44;17.90;99.90
995;DHT22;486;48.726;8.964;2022-09-09T07:25:14;18.10;99.90
995;DHT22;486;48.726;8.964;2022-09-09T07:27:43;18.20;99.90
995;DHT22;486;48.726;8.964;2022-09-09T07:30:13;18.30;99.90
995;DHT22;486;48.726;8.964;2022-09-09T07:32:44;18.30;99.90
995;DHT22;486;48.726;8.964;2022-09-09T07:35:14;18.20;99.90
995;DHT22;486;48.726;8.964;2022-09-09T07:37:43;18.10;99.90
995;DHT22;486;48.726;8.964;2022-09-09T07:40:12;18.30;99.90
995;DHT22;486;48.726;8.964;2022-09-09T07:42:41;18.30;99.90
995;DHT22;486;48.726;8.964;2022-09-09T07:45:10;18.50;99.90
995;DHT22;486;48.726;8.964;2022-09-09T07:47:40;18.70;99.90
995;DHT22;486;48.726;8.964;2022-09-09T07:50:12;19.00;99.90
995;DHT22;486;48.726;8.964;2022-09-09T07:52:41;19.20;99.90
995;DHT22;486;48.726;8.964;2022-09-09T07:55:10;19.40;99.90
995;DHT22;486;48.726;8.964;2022-09-09T07:57:39;19.20;99.90
995;DHT22;486;48.726;8.964;2022-09-09T08:00:10;19.00;99.90
995;DHT22;486;48.726;8.964;2022-09-09T08:02:44;18.90;99.90
995;DHT22;486;48.726;8.964;2022-09-09T08:05:15;18.90;99.90
995;DHT22;486;48.726;8.964;2022-09-09T08:07:45;19.10;99.90
995;DHT22;486;48.726;8.964;2022-09-09T08:10:14;19.20;99.90
995;DHT22;486;48.726;8.964;2022-09-09T08:12:46;19.20;99.90
995;DHT22;486;48.726;8.964;2022-09-09T08:15:15;19.30;99.90
995;DHT22;486;48.726;8.964;2022-09-09T08:17:45;19.50;99.90
995;DHT22;486;48.726;8.964;2022-09-09T08:20:17;19.50;99.90
995;DHT22;486;48.726;8.964;2022-09-09T08:22:47;19.50;99.90
995;DHT22;486;48.726;8.964;2022-09-09T08:25:16;19.20;99.90
995;DHT22;486;48.726;8.964;2022-09-09T08:27:45;19.10;99.90
995;DHT22;486;48.726;8.964;2022-09-09T08:30:14;19.10;99.90
995;DHT22;486;48.726;8.964;2022-09-09T08:32:43;19.20;99.90
995;DHT22;486;48.726;8.964;2022-09-09T08:35:12;19.40;99.90
995;DHT22;486;48.726;8.964;2022-09-09T08:37:46;19.60;99.90
995;DHT22;486;48.726;8.964;2022-09-09T08:40:25;19.70;99.90
995;DHT22;486;48.726;8.964;2022-09-09T08:42:59;19.90;99.90
995;DHT22;486;48.726;8.964;2022-09-09T08:45:35;20.20;99.90
995;DHT22;486;48.726;8.964;2022-09-09T08:48:22;20.40;99.90
995;DHT22;486;48.726;8.964;2022-09-09T08:51:01;20.40;99.90
995;DHT22;486;48.726;8.964;2022-09-09T08:53:41;20.20;99.90
995;DHT22;486;48.726;8.964;2022-09-09T08:56:14;20.00;99.90
995;DHT22;486;48.726;8.964;2022-09-09T08:58:49;19.70;99.90
995;DHT22;486;48.726;8.964;2022-09-09T09:01:47;19.60;99.90
995;DHT22;486;48.726;8.964;2022-09-09T09:04:59;19.40;99.90
995;DHT22;486;48.726;8.964;2022-09-09T09:07:45;19.10;99.90
995;DHT22;486;48.726;8.964;2022-09-09T09:10:39;18.50;99.90
995;DHT22;486;48.726;8.964;2022-09-09T09:13:20;18.10;99.90
995;DHT22;486;48.726;8.964;2022-09-09T09:16:00;17.70;99.90
995;DHT22;486;48.726;8.964;2022-09-09T09:18:34;17.70;99.90
995;DHT22;486;48.726;8.964;2022-09-09T09:21:10;17.80;99.90
995;DHT22;486;48.726;8.964;2022-09-09T09:23:49;18.20;99.90
995;DHT22;486;48.726;8.964;2022-09-09T09:26:30;18.50;99.90
995;DHT22;486;48.726;8.964;2022-09-09T09:29:09;18.80;99.90
995;DHT22;486;48.726;8.964;2022-09-09T09:31:43;19.00;99.90
995;DHT22;486;48.726;8.964;2022-09-09T09:34:15;19.30;99.90
995;DHT22;486;48.726;8.964;2022-09-09T09:36:53;19.30;99.90
995;DHT22;486;48.726;8.964;2022-09-09T09:39:27;19.40;99.90
995;DHT22;486;48.726;8.964;2022-09-09T09:42:12;19.30;99.90
995;DHT22;486;48.726;8.964;2022-09-09T09:44:45;19.50;99.90
995;DHT22;486;48.726;8.964;2022-09-09T09:47:19;19.70;99.90
995;DHT22;486;48.726;8.964;2022-09-09T09:50:00;19.80;99.90
995;DHT22;486;48.726;8.964;2022-09-09T09:52:35;20.00;99.90
995;DHT22;486;48.726;8.964;2022-09-09T09:55:13;20.10;99.90
995;DHT22;486;48.726;8.964;2022-09-09T09:57:48;20.10;99.90
995;DHT22;486;48.726;8.964;2022-09-09T10:00:19;20.30;99.90
995;DHT22;486;48.726;8.964;2022-09-09T10:03:01;20.40;99.90
995;DHT22;486;48.726;8.964;2022-09-09T10:05:36;20.40;99.90
995;DHT22;486;48.726;8.964;2022-09-09T10:08:11;20.70;99.90
995;DHT22;486;48.726;8.964;2022-09-09T10:11:07;20.80;99.90
995;DHT22;486;48.726;8.964;2022-09-09T10:13:54;20.80;99.40
995;DHT22;486;48.726;8.964;2022-09-09T10:16:40;20.80;98.30
995;DHT22;486;48.726;8.964;2022-09-09T10:19:20;20.90;98.60
995;DHT22;486;48.726;8.964;2022-09-09T10:22:05;21.10;99.90
995;DHT22;486;48.726;8.964;2022-09-09T10:24:53;21.40;99.90
995;DHT22;486;48.726;8.964;2022-09-09T10:27:44;21.60;99.30
995;DHT22;486;48.726;8.964;2022-09-09T10:30:24;21.80;96.00
995;DHT22;486;48.726;8.964;2022-09-09T10:33:04;21.70;95.00
995;DHT22;486;48.726;8.964;2022-09-09T10:35:43;22.00;95.50
995;DHT22;486;48.726;8.964;2022-09-09T10:38:18;22.50;95.10
995;DHT22;486;48.726;8.964;2022-09-09T10:41:16;22.70;93.40
995;DHT22;486;48.726;8.964;2022-09-09T10:44:17;22.60;92.80
995;DHT22;486;48.726;8.964;2022-09-09T10:47:11;22.40;92.30
995;DHT22;486;48.726;8.964;2022-09-09T10:50:20;22.20;92.60
995;DHT22;486;48.726;8.964;2022-09-09T10:53:05;21.80;93.20
995;DHT22;486;48.726;8.964;2022-09-09T10:55:40;21.40;93.80
995;DHT22;486;48.726;8.964;2022-09-09T10:58:16;21.40;94.40
995;DHT22;486;48.726;8.964;2022-09-09T11:00:51;21.20;94.50
995;DHT22;486;48.726;8.964;2022-09-09T11:03:27;20.70;94.20
995;DHT22;486;48.726;8.964;2022-09-09T11:06:01;20.10;94.30
995;DHT22;486;48.726;8.964;2022-09-09T11:08:37;19.80;94.90
995;DHT22;486;48.726;8.964;2022-09-09T11:11:10;19.70;94.60
995;DHT22;486;48.726;8.964;2022-09-09T11:13:45;19.40;95.10
995;DHT22;486;48.726;8.964;2022-09-09T11:16:25;18.80;99.20
995;DHT22;486;48.726;8.964;2022-09-09T11:19:03;18.20;99.90
995;DHT22;486;48.726;8.964;2022-09-09T11:21:39;18.00;99.90
995;DHT22;486;48.726;8.964;2022-09-09T11:24:15;17.60;99.90
995;DHT22;486;48.726;8.964;2022-09-09T11:26:52;17.00;99.90
995;DHT22;486;48.726;8.964;2022-09-09T11:29:36;16.50;99.90
995;DHT22;486;48.726;8.964;2022-09-09T11:35:41;16.10;99.90
995;DHT22;486;48.726;8.964;2022-09-09T11:38:26;16.00;99.90
995;DHT22;486;48.726;8.964;2022-09-09T11:40:58;16.00;99.90
995;DHT22;486;48.726;8.964;2022-09-09T11:43:30;15.90;99.90
995;DHT22;486;48.726;8.964;2022-09-09T11:46:02;16.10;99.90
995;DHT22;486;48.726;8.964;2022-09-09T11:48:34;16.20;99.90
995;DHT22;486;48.726;8.964;2022-09-09T11:51:09;16.50;99.90
995;DHT22;486;48.726;8.964;2022-09-09T11:53:51;16.80;99.90
995;DHT22;486;48.726;8.964;2022-09-09T11:56:26;17.20;99.90
995;DHT22;486;48.726;8.964;2022-09-09T11:59:00;17.70;99.90
995;DHT22;486;48.726;8.964;2022-09-09T12:01:37;18.30;99.90
995;DHT22;486;48.726;8.964;2022-09-09T12:04:28;18.80;99.90
995;DHT22;486;48.726;8.964;2022-09-09T12:07:04;19.10;99.90
995;DHT22;486;48.726;8.964;2022-09-09T12:09:51;19.10;99.90
995;DHT22;486;48.726;8.964;2022-09-09T12:12:29;19.10;99.90
995;DHT22;486;48.726;8.964;2022-09-09T12:15:26;18.80;99.90
995;DHT22;486;48.726;8.964;2022-09-09T12:17:57;19.10;99.90
995;DHT22;486;48.726;8.964;2022-09-09T12:20:33;19.30;99.90
995;DHT22;486;48.726;8.964;2022-09-09T12:23:16;19.50;99.90
995;DHT22;486;48.726;8.964;2022-09-09T12:26:04;19.70;99.90
995;DHT22;486;48.726;8.964;2022-09-09T12:29:09;19.60;99.90
995;DHT22;486;48.726;8.964;2022-09-09T12:31:46;19.80;99.90
995;DHT22;486;48.726;8.964;2022-09-09T12:34:35;19.80;99.90
995;DHT22;486;48.726;8.964;2022-09-09T12:37:16;20.10;99.90
995;DHT22;486;48.726;8.964;2022-09-09T12:39:55;19.90;99.90
995;DHT22;486;48.726;8.964;2022-09-09T12:42:26;20.20;99.90
995;DHT22;486;48.726;8.964;2022-09-09T12:44:57;20.20;99.80
995;DHT22;486;48.726;8.964;2022-09-09T12:47:36;20.30;99.70
995;DHT22;486;48.726;8.964;2022-09-09T12:50:17;20.20;99.90
995;DHT22;486;48.726;8.964;2022-09-09T12:52:51;20.20;99.50
995;DHT22;486;48.726;8.964;2022-09-09T12:55:25;20.30;99.80
995;DHT22;486;48.726;8.964;2022-09-09T12:57:59;20.60;98.50
995;DHT22;486;48.726;8.964;2022-09-09T13:00:31;20.80;99.10
995;DHT22;486;48.726;8.964;2022-09-09T13:03:14;21.50;98.40
995;DHT22;486;48.726;8.964;2022-09-09T13:05:46;22.00;96.80
995;DHT22;486;48.726;8.964;2022-09-09T13:08:17;22.00;96.70
